createdAt,value
2023-02-14T00:00:06.637Z,100.00
2023-02-14T00:02:33.481Z,99.62
2023-02-14T00:05:01.149Z,100.00
2023-02-14T00:07:28.365Z,100.00
2023-02-14T00:09:55.901Z,100.00
2023-02-14T00:12:23.339Z,100.00
2023-02-14T00:15:25.972Z,97.99
2023-02-14T00:17:54.997Z,98.64
2023-02-14T00:20:23.286Z,99.06
2023-02-14T00:22:50.727Z,98.78
2023-02-14T00:25:18.535Z,98.82
2023-02-14T00:27:45.999Z,97.73
2023-02-14T00:30:14.392Z,97.99
2023-02-14T00:32:44.671Z,98.44
2023-02-14T00:35:11.697Z,99.56
2023-02-14T00:37:39.429Z,99.74
2023-02-14T00:40:09.594Z,99.16
2023-02-14T00:42:39.785Z,98.66
2023-02-14T00:45:07.059Z,98.64
2023-02-14T00:47:34.214Z,98.73
2023-02-14T00:50:03.126Z,98.68
2023-02-14T00:52:31.251Z,98.49
2023-02-14T00:54:58.170Z,98.83
2023-02-14T00:57:25.100Z,98.95
2023-02-14T00:59:52.012Z,99.43
2023-02-14T01:02:19.340Z,98.39
2023-02-14T01:04:46.244Z,99.47
2023-02-14T01:07:13.188Z,99.76
2023-02-14T01:09:40.457Z,98.73
2023-02-14T01:12:07.651Z,99.77
2023-02-14T01:14:36.692Z,99.03
2023-02-14T01:17:03.836Z,98.80
2023-02-14T01:19:30.968Z,99.88
2023-02-14T01:21:58.122Z,100.00
2023-02-14T01:24:26.683Z,100.00
2023-02-14T01:27:00.976Z,100.00
2023-02-14T01:29:34.457Z,100.00
2023-02-14T01:32:07.356Z,100.00
2023-02-14T01:34:34.620Z,100.00
2023-02-14T01:37:01.808Z,100.00
2023-02-14T01:39:28.866Z,100.00
2023-02-14T01:41:56.806Z,100.00
2023-02-14T01:44:30.094Z,100.00
2023-02-14T01:46:58.783Z,100.00
2023-02-14T01:49:37.881Z,100.00
2023-02-14T01:52:14.451Z,100.00
2023-02-14T01:54:54.433Z,99.29
2023-02-14T01:57:58.870Z,99.34
2023-02-14T02:01:00.224Z,99.50
2023-02-14T02:03:42.645Z,99.05
2023-02-14T02:06:22.477Z,98.96
2023-02-14T02:09:18.380Z,99.82
2023-02-14T02:11:45.693Z,99.09
2023-02-14T02:14:16.373Z,100.00
2023-02-14T02:17:10.925Z,100.00
2023-02-14T02:19:59.881Z,100.00
2023-02-14T02:22:51.490Z,100.00
2023-02-14T02:25:37.275Z,100.00
2023-02-14T02:28:03.970Z,100.00
2023-02-14T02:30:43.282Z,100.00
2023-02-14T02:33:33.080Z,100.00
2023-02-14T02:36:16.313Z,100.00
2023-02-14T02:39:02.791Z,100.00
2023-02-14T02:41:38.521Z,100.00
2023-02-14T02:44:11.614Z,100.00
2023-02-14T02:46:54.076Z,100.00
2023-02-14T02:49:52.900Z,100.00
2023-02-14T02:52:50.411Z,100.00
2023-02-14T02:55:56.065Z,100.00
2023-02-14T02:58:27.500Z,100.00
2023-02-14T03:00:55.437Z,100.00
2023-02-14T03:03:43.217Z,100.00
2023-02-14T03:06:10.413Z,100.00
2023-02-14T03:08:37.244Z,100.00
2023-02-14T03:11:05.535Z,100.00
2023-02-14T03:13:54.473Z,100.00
2023-02-14T03:16:27.172Z,100.00
2023-02-14T03:19:15.443Z,100.00
2023-02-14T03:21:52.229Z,100.00
2023-02-14T03:24:46.506Z,100.00
2023-02-14T03:27:27.774Z,100.00
2023-02-14T03:30:08.944Z,100.00
2023-02-14T03:33:02.354Z,100.00
2023-02-14T03:35:37.649Z,100.00
2023-02-14T03:38:11.828Z,100.00
2023-02-14T03:40:58.489Z,100.00
2023-02-14T03:43:32.470Z,100.00
2023-02-14T03:46:07.084Z,100.00
2023-02-14T03:48:36.294Z,100.00
2023-02-14T03:51:05.662Z,100.00
2023-02-14T03:53:36.891Z,100.00
2023-02-14T04:00:18.264Z,100.00
2023-02-14T04:03:19.257Z,100.00
2023-02-14T04:05:52.592Z,100.00
2023-02-14T04:11:14.180Z,100.00
2023-02-14T04:13:42.078Z,100.00
2023-02-14T04:16:09.634Z,100.00
2023-02-14T04:18:55.032Z,100.00
2023-02-14T04:21:22.097Z,100.00
2023-02-14T04:23:49.350Z,100.00
2023-02-14T04:26:16.972Z,100.00
2023-02-14T04:28:44.012Z,100.00
2023-02-14T04:31:11.716Z,100.00
2023-02-14T04:33:39.570Z,100.00
2023-02-14T04:36:10.004Z,100.00
2023-02-14T04:38:37.294Z,100.00
2023-02-14T04:43:49.416Z,100.00
2023-02-14T04:46:17.226Z,100.00
2023-02-14T04:48:44.451Z,100.00
2023-02-14T04:51:11.737Z,100.00
2023-02-14T04:53:54.156Z,100.00
2023-02-14T04:56:21.483Z,100.00
2023-02-14T04:58:50.096Z,100.00
2023-02-14T05:01:17.202Z,100.00
2023-02-14T05:03:44.674Z,100.00
2023-02-14T05:06:11.881Z,100.00
2023-02-14T05:08:38.853Z,100.00
2023-02-14T05:11:05.919Z,100.00
2023-02-14T05:13:33.079Z,100.00
2023-02-14T05:16:00.187Z,100.00
2023-02-14T05:18:27.908Z,100.00
2023-02-14T05:20:55.618Z,100.00
2023-02-14T05:23:22.864Z,100.00
2023-02-14T05:25:51.716Z,100.00
2023-02-14T05:28:22.452Z,100.00
2023-02-14T05:30:51.807Z,100.00
2023-02-14T05:33:19.111Z,100.00
2023-02-14T05:35:46.025Z,100.00
2023-02-14T05:38:14.246Z,100.00
2023-02-14T05:40:41.859Z,100.00
2023-02-14T05:43:08.961Z,100.00
2023-02-14T05:45:36.300Z,100.00
2023-02-14T05:48:03.097Z,100.00
2023-02-14T05:50:30.158Z,100.00
2023-02-14T05:52:57.095Z,100.00
2023-02-14T05:55:25.839Z,100.00
2023-02-14T05:57:52.677Z,100.00
2023-02-14T06:00:20.184Z,100.00
2023-02-14T06:02:47.049Z,100.00
2023-02-14T06:05:15.402Z,100.00
2023-02-14T06:07:43.775Z,100.00
2023-02-14T06:10:11.123Z,100.00
2023-02-14T06:12:38.524Z,100.00
2023-02-14T06:15:05.913Z,100.00
2023-02-14T06:17:32.814Z,100.00
2023-02-14T06:19:59.534Z,100.00
2023-02-14T06:22:26.508Z,100.00
2023-02-14T06:24:53.484Z,100.00
2023-02-14T06:27:20.250Z,100.00
2023-02-14T06:29:47.102Z,100.00
2023-02-14T06:32:14.012Z,100.00
2023-02-14T06:34:41.078Z,100.00
2023-02-14T06:37:08.380Z,100.00
2023-02-14T06:39:35.295Z,100.00
2023-02-14T06:42:02.057Z,100.00
2023-02-14T06:44:28.949Z,100.00
2023-02-14T06:46:55.722Z,100.00
2023-02-14T06:49:22.612Z,100.00
2023-02-14T06:51:49.687Z,100.00
2023-02-14T06:54:16.579Z,100.00
2023-02-14T06:56:43.320Z,100.00
2023-02-14T06:59:10.029Z,100.00
2023-02-14T07:01:37.146Z,100.00
2023-02-14T07:04:04.009Z,100.00
2023-02-14T07:06:31.245Z,100.00
2023-02-14T07:08:58.019Z,100.00
2023-02-14T07:11:24.837Z,100.00
2023-02-14T07:13:51.726Z,100.00
2023-02-14T07:16:19.055Z,100.00
2023-02-14T07:18:45.993Z,100.00
2023-02-14T07:21:12.818Z,100.00
2023-02-14T07:23:40.296Z,100.00
2023-02-14T07:26:07.450Z,100.00
2023-02-14T07:28:34.328Z,100.00
2023-02-14T07:31:01.660Z,100.00
2023-02-14T07:33:29.176Z,100.00
2023-02-14T07:35:59.583Z,100.00
2023-02-14T07:38:26.780Z,100.00
2023-02-14T07:40:55.212Z,100.00
2023-02-14T07:43:22.093Z,100.00
2023-02-14T07:45:48.987Z,100.00
2023-02-14T07:48:15.939Z,100.00
2023-02-14T07:50:43.043Z,100.00
2023-02-14T07:53:10.357Z,100.00
2023-02-14T07:55:37.349Z,100.00
2023-02-14T07:58:04.591Z,100.00
2023-02-14T08:00:31.840Z,99.70
2023-02-14T08:02:58.663Z,99.69
2023-02-14T08:05:25.543Z,98.17
2023-02-14T08:07:52.579Z,97.72
2023-02-14T08:10:19.631Z,98.22
2023-02-14T08:13:01.555Z,96.16
2023-02-14T08:15:53.021Z,97.84
2023-02-14T08:18:23.264Z,95.38
2023-02-14T08:20:50.472Z,95.01
2023-02-14T08:23:18.717Z,94.01
2023-02-14T08:25:46.567Z,93.48
2023-02-14T08:28:17.045Z,93.94
2023-02-14T08:30:45.470Z,91.84
2023-02-14T08:33:12.652Z,92.55
2023-02-14T08:35:39.789Z,90.69
2023-02-14T08:38:06.881Z,89.98
2023-02-14T08:40:36.415Z,89.78
2023-02-14T08:43:07.534Z,89.30
2023-02-14T08:45:34.784Z,89.93
2023-02-14T08:48:04.845Z,89.32
2023-02-14T08:50:31.981Z,89.17
2023-02-14T08:52:58.778Z,89.21
2023-02-14T08:55:26.218Z,88.34
2023-02-14T08:57:56.116Z,87.78
2023-02-14T09:00:23.053Z,87.24
2023-02-14T09:02:53.627Z,87.55
2023-02-14T09:05:21.600Z,86.63
2023-02-14T09:07:48.318Z,86.59
2023-02-14T09:10:15.155Z,87.02
2023-02-14T09:12:45.556Z,87.57
2023-02-14T09:15:13.067Z,87.67
2023-02-14T09:17:40.529Z,86.50
2023-02-14T09:20:10.108Z,86.10
2023-02-14T09:22:37.401Z,86.96
2023-02-14T09:25:05.218Z,86.60
2023-02-14T09:27:34.598Z,86.53
2023-02-14T09:30:01.869Z,85.99
2023-02-14T09:32:29.405Z,86.55
2023-02-14T09:34:56.806Z,86.16
2023-02-14T09:37:45.070Z,85.67
2023-02-14T09:40:17.466Z,85.09
2023-02-14T09:42:54.594Z,85.41
2023-02-14T09:45:30.234Z,85.90
2023-02-14T09:48:03.052Z,85.13
2023-02-14T09:50:30.673Z,85.39
2023-02-14T09:53:01.945Z,86.80
2023-02-14T09:55:42.455Z,86.47
2023-02-14T09:58:19.882Z,86.16
2023-02-14T10:00:54.495Z,85.87
2023-02-14T10:03:53.009Z,86.00
2023-02-14T10:06:22.881Z,86.46
2023-02-14T10:09:11.487Z,85.85
2023-02-14T10:11:40.190Z,85.95
2023-02-14T10:14:16.278Z,84.77
2023-02-14T10:16:46.502Z,85.39
2023-02-14T10:19:28.556Z,84.18
2023-02-14T10:22:00.975Z,84.01
2023-02-14T10:24:40.481Z,84.39
2023-02-14T10:27:15.909Z,84.71
2023-02-14T10:29:42.968Z,84.71
2023-02-14T10:32:19.709Z,84.09
2023-02-14T10:34:49.335Z,83.22
2023-02-14T10:37:26.186Z,84.38
2023-02-14T10:40:34.652Z,84.60
2023-02-14T10:43:23.714Z,83.66
2023-02-14T10:46:14.016Z,83.12
2023-02-14T10:49:18.003Z,83.22
2023-02-14T10:52:01.311Z,83.73
2023-02-14T10:54:40.123Z,83.81
2023-02-14T10:57:29.581Z,82.94
2023-02-14T11:00:22.292Z,83.10
2023-02-14T11:02:54.412Z,82.32
2023-02-14T11:05:47.173Z,82.00
2023-02-14T11:08:30.473Z,83.41
2023-02-14T11:11:24.034Z,83.33
2023-02-14T11:13:51.850Z,84.52
2023-02-14T11:16:30.518Z,84.08
2023-02-14T11:19:22.868Z,84.78
2023-02-14T11:21:52.179Z,84.89
2023-02-14T11:24:22.084Z,85.43
2023-02-14T11:26:53.380Z,84.52
2023-02-14T11:29:33.751Z,85.07
2023-02-14T11:32:26.095Z,85.21
2023-02-14T11:35:16.255Z,84.79
2023-02-14T11:38:12.589Z,85.83
2023-02-14T11:40:39.712Z,85.55
2023-02-14T11:43:21.481Z,85.51
2023-02-14T11:45:50.299Z,84.47
2023-02-14T11:48:48.856Z,84.50
2023-02-14T11:51:23.686Z,84.53
2023-02-14T11:53:56.551Z,83.61
2023-02-14T11:56:52.367Z,83.92
2023-02-14T11:59:43.108Z,84.47
2023-02-14T12:02:28.844Z,85.55
2023-02-14T12:05:21.004Z,84.26
2023-02-14T12:08:02.109Z,84.33
2023-02-14T12:10:43.457Z,85.86
2023-02-14T12:13:10.340Z,85.07
2023-02-14T12:15:52.957Z,86.06
2023-02-14T12:18:35.126Z,86.16
2023-02-14T12:21:13.221Z,85.07
2023-02-14T12:23:49.380Z,86.11
2023-02-14T12:35:22.872Z,86.02
2023-02-14T12:46:04.161Z,87.87
2023-02-14T12:48:49.070Z,86.27
2023-02-14T12:51:31.407Z,86.94
2023-02-14T12:54:31.126Z,86.91
2023-02-14T12:57:10.899Z,86.67
2023-02-14T13:00:05.588Z,86.02
2023-02-14T13:02:50.643Z,85.73
2023-02-14T13:05:41.980Z,86.28
2023-02-14T13:08:30.730Z,86.42
2023-02-14T13:11:18.536Z,86.83
2023-02-14T13:14:06.782Z,85.78
2023-02-14T13:17:11.739Z,86.92
2023-02-14T13:20:17.454Z,86.82
2023-02-14T13:22:45.398Z,86.41
2023-02-14T13:25:34.280Z,86.94
2023-02-14T13:28:12.017Z,88.16
2023-02-14T13:30:41.691Z,87.37
2023-02-14T13:33:27.194Z,87.39
2023-02-14T13:36:03.643Z,87.15
2023-02-14T13:38:34.125Z,87.46
2023-02-14T13:41:02.855Z,86.93
2023-02-14T13:43:51.447Z,87.14
2023-02-14T13:46:21.362Z,86.80
2023-02-14T13:49:22.217Z,86.89
2023-02-14T13:51:51.871Z,86.81
2023-02-14T13:54:47.489Z,87.09
2023-02-14T13:57:31.829Z,86.80
2023-02-14T14:00:19.892Z,86.41
2023-02-14T14:02:49.944Z,86.66
2023-02-14T14:05:40.738Z,86.65
2023-02-14T14:08:23.528Z,86.42
2023-02-14T14:10:56.101Z,86.75
2023-02-14T14:13:48.268Z,86.40
2023-02-14T14:16:24.404Z,86.63
2023-02-14T14:18:55.809Z,85.98
2023-02-14T14:21:27.268Z,85.98
2023-02-14T14:24:23.453Z,85.90
2023-02-14T14:27:38.899Z,86.25
2023-02-14T14:30:15.825Z,86.63
2023-02-14T14:32:45.557Z,87.04
2023-02-14T14:35:26.188Z,87.11
2023-02-14T14:37:57.387Z,86.99
2023-02-14T14:40:25.868Z,87.46
2023-02-14T14:42:54.135Z,86.89
2023-02-14T14:45:29.236Z,87.12
2023-02-14T14:47:58.950Z,86.70
2023-02-14T14:50:28.928Z,87.46
2023-02-14T14:53:35.376Z,87.90
2023-02-14T14:56:02.780Z,87.07
2023-02-14T14:58:42.194Z,87.96
2023-02-14T15:01:21.419Z,88.04
2023-02-14T15:03:48.652Z,87.68
2023-02-14T15:06:55.087Z,87.93
2023-02-14T15:09:29.141Z,88.02
2023-02-14T15:12:16.547Z,87.61
2023-02-14T15:14:51.689Z,89.02
2023-02-14T15:17:21.881Z,88.13
2023-02-14T15:20:05.941Z,88.60
2023-02-14T15:22:45.017Z,88.44
2023-02-14T15:25:19.011Z,88.79
2023-02-14T15:27:48.662Z,87.85
2023-02-14T15:30:34.305Z,87.21
2023-02-14T15:33:03.927Z,88.40
2023-02-14T15:35:42.766Z,88.39
2023-02-14T15:38:12.273Z,87.73
2023-02-14T15:40:40.694Z,87.41
2023-02-14T15:43:22.041Z,88.69
2023-02-14T15:45:53.588Z,88.36
2023-02-14T15:48:29.495Z,88.97
2023-02-14T15:51:00.140Z,90.39
2023-02-14T15:53:42.417Z,88.56
2023-02-14T15:56:38.905Z,90.43
2023-02-14T15:59:36.544Z,92.07
2023-02-14T16:09:29.093Z,92.04
2023-02-14T16:11:56.422Z,91.70
2023-02-14T16:14:35.362Z,92.30
2023-02-14T16:17:12.007Z,93.73
2023-02-14T16:19:44.077Z,94.06
2023-02-14T16:22:26.025Z,93.05
2023-02-14T16:24:53.280Z,93.71
2023-02-14T16:27:20.207Z,94.20
2023-02-14T16:29:47.570Z,94.38
2023-02-14T16:32:21.258Z,94.57
2023-02-14T16:34:49.504Z,94.83
2023-02-14T17:15:38.281Z,100.00
2023-02-14T17:18:15.016Z,100.00
2023-02-14T17:20:42.440Z,100.00
2023-02-14T17:23:10.142Z,100.00
2023-02-14T17:25:37.430Z,99.62
2023-02-14T17:28:04.527Z,99.40
2023-02-14T17:30:31.785Z,99.78
2023-02-14T17:32:59.039Z,100.00
2023-02-14T17:35:26.360Z,100.00
2023-02-14T17:37:53.234Z,100.00
2023-02-14T17:40:20.235Z,100.00
2023-02-14T17:42:47.464Z,100.00
2023-02-14T17:45:15.530Z,100.00
2023-02-14T17:47:43.620Z,100.00
2023-02-14T17:50:10.861Z,100.00
2023-02-14T17:52:38.481Z,100.00
2023-02-14T17:55:06.825Z,100.00
2023-02-14T17:57:34.004Z,100.00
2023-02-14T18:00:05.988Z,100.00
2023-02-14T18:02:33.463Z,100.00
2023-02-14T18:05:00.640Z,100.00
2023-02-14T18:07:27.649Z,100.00
2023-02-14T18:09:54.645Z,100.00
2023-02-14T18:12:21.544Z,100.00
2023-02-14T18:14:48.393Z,100.00
2023-02-14T18:17:15.748Z,100.00
2023-02-14T18:19:43.049Z,100.00
2023-02-14T18:22:10.579Z,100.00
2023-02-14T18:24:37.952Z,100.00
2023-02-14T18:27:06.218Z,100.00
2023-02-14T18:29:33.405Z,99.54
2023-02-14T18:32:03.790Z,98.69
2023-02-14T18:34:30.711Z,98.44
2023-02-14T18:37:02.378Z,97.27
2023-02-14T18:39:29.555Z,97.00
2023-02-14T18:42:01.063Z,96.33
2023-02-14T18:44:29.752Z,95.66
2023-02-14T18:46:57.543Z,94.76
2023-02-14T18:49:24.660Z,95.45
2023-02-14T18:51:52.331Z,93.96
2023-02-14T18:54:22.662Z,93.86
2023-02-14T18:56:49.597Z,93.82
2023-02-14T18:59:17.693Z,94.26
2023-02-14T19:01:45.930Z,93.34
2023-02-14T19:04:14.095Z,93.71
2023-02-14T19:06:42.609Z,93.88
2023-02-14T19:09:17.781Z,93.64
2023-02-14T19:11:54.059Z,93.34
2023-02-14T19:14:23.705Z,93.61
2023-02-14T19:16:53.571Z,92.16
2023-02-14T19:19:21.044Z,92.02
2023-02-14T19:21:48.493Z,92.23
2023-02-14T19:24:16.730Z,92.66
2023-02-14T19:26:53.847Z,91.87
2023-02-14T19:29:22.421Z,92.30
2023-02-14T19:31:51.422Z,91.84
2023-02-14T19:34:27.223Z,92.36
2023-02-14T19:36:57.399Z,92.05
2023-02-14T19:47:23.380Z,94.53
2023-02-14T19:53:11.131Z,95.41
2023-02-14T20:17:47.583Z,98.26
2023-02-14T20:24:15.583Z,98.53
2023-02-14T20:29:55.528Z,98.19
2023-02-14T20:30:00.477Z,99.39
2023-02-14T20:33:20.412Z,99.52
2023-02-14T20:39:32.791Z,99.62
2023-02-14T20:46:40.109Z,100.00
2023-02-14T20:50:11.537Z,100.00
2023-02-14T20:52:45.347Z,100.00
2023-02-14T20:55:24.198Z,100.00
2023-02-14T20:58:32.969Z,100.00
2023-02-14T21:01:49.528Z,100.00
2023-02-14T21:04:26.875Z,100.00
2023-02-14T21:06:54.918Z,100.00
2023-02-14T21:09:35.361Z,100.00
2023-02-14T21:12:09.734Z,100.00
2023-02-14T21:14:36.917Z,100.00
2023-02-14T21:17:05.414Z,100.00
2023-02-14T21:19:32.672Z,100.00
2023-02-14T21:21:59.760Z,100.00
2023-02-14T21:24:32.727Z,100.00
2023-02-14T21:27:02.604Z,100.00
2023-02-14T21:29:29.435Z,100.00
2023-02-14T21:31:57.003Z,100.00
2023-02-14T21:34:23.998Z,100.00
2023-02-14T21:36:52.221Z,100.00
2023-02-14T21:39:21.152Z,100.00
2023-02-14T21:41:48.022Z,100.00
2023-02-14T21:44:38.208Z,100.00
2023-02-14T21:47:05.367Z,100.00
2023-02-14T21:49:54.502Z,100.00
2023-02-14T21:52:27.784Z,100.00
2023-02-14T21:54:58.065Z,100.00
2023-02-14T21:57:24.827Z,100.00
2023-02-14T21:59:52.273Z,100.00
2023-02-14T22:02:28.450Z,100.00
2023-02-14T22:04:55.522Z,100.00
2023-02-14T22:07:22.742Z,100.00
2023-02-14T22:09:52.016Z,100.00
2023-02-14T22:12:19.239Z,100.00
2023-02-14T22:14:45.989Z,100.00
2023-02-14T22:17:15.816Z,100.00
2023-02-14T22:19:46.922Z,100.00
2023-02-14T22:22:17.176Z,100.00
2023-02-14T22:24:45.939Z,100.00
2023-02-14T22:27:12.947Z,100.00
2023-02-14T22:29:50.040Z,100.00
2023-02-14T22:32:20.419Z,100.00
2023-02-14T22:34:47.635Z,100.00
2023-02-14T22:37:14.712Z,100.00
2023-02-14T22:39:41.731Z,100.00
2023-02-14T22:42:10.137Z,100.00
2023-02-14T22:44:44.509Z,100.00
2023-02-14T22:47:19.050Z,100.00
2023-02-14T22:49:48.291Z,100.00
2023-02-14T22:52:19.892Z,100.00
2023-02-14T22:54:47.824Z,100.00
2023-02-14T22:57:14.890Z,100.00
2023-02-14T22:59:42.091Z,100.00
2023-02-14T23:02:10.283Z,100.00
2023-02-14T23:04:37.516Z,100.00
2023-02-14T23:07:04.553Z,100.00
2023-02-14T23:09:33.924Z,100.00
2023-02-14T23:12:01.310Z,100.00
2023-02-14T23:14:48.225Z,100.00
2023-02-14T23:17:16.392Z,100.00
2023-02-14T23:20:02.966Z,100.00
2023-02-14T23:22:33.706Z,100.00
2023-02-14T23:25:11.010Z,100.00
2023-02-14T23:27:44.228Z,100.00
2023-02-14T23:30:22.616Z,100.00
2023-02-14T23:42:34.398Z,100.00
2023-02-14T23:45:44.889Z,100.00
2023-02-14T23:52:12.614Z,100.00
